createdAt,value
2019-03-26T00:01:43.950Z,4.40
2019-03-26T00:04:13.254Z,4.40
2019-03-26T00:06:42.645Z,4.40
2019-03-26T00:09:12.277Z,4.40
2019-03-26T00:11:41.587Z,4.50
2019-03-26T00:14:10.886Z,4.50
2019-03-26T00:16:40.199Z,4.50
2019-03-26T00:19:09.574Z,4.50
2019-03-26T00:21:38.967Z,4.50
2019-03-26T00:24:08.270Z,4.60
2019-03-26T00:26:37.582Z,4.60
2019-03-26T00:29:06.882Z,4.60
2019-03-26T00:31:36.202Z,4.70
2019-03-26T00:34:18.286Z,4.70
2019-03-26T00:36:36.683Z,4.70
2019-03-26T00:39:07.427Z,4.70
2019-03-26T00:41:36.810Z,4.70
2019-03-26T00:44:06.206Z,4.70
2019-03-26T00:46:35.643Z,4.70
2019-03-26T00:49:05.020Z,4.70
2019-03-26T00:51:34.339Z,4.70
2019-03-26T00:54:03.719Z,4.70
2019-03-26T00:56:33.016Z,4.60
2019-03-26T00:59:02.316Z,4.60
2019-03-26T01:01:31.630Z,4.60
2019-03-26T01:04:01.218Z,4.60
2019-03-26T01:06:31.258Z,4.50
2019-03-26T01:09:00.663Z,4.50
2019-03-26T01:11:29.966Z,4.60
2019-03-26T01:13:59.269Z,4.60
2019-03-26T01:16:28.572Z,4.60
2019-03-26T01:18:57.875Z,4.60
2019-03-26T01:21:27.174Z,4.60
2019-03-26T01:23:56.492Z,4.60
2019-03-26T01:26:25.784Z,4.60
2019-03-26T01:28:55.090Z,4.60
2019-03-26T01:31:24.390Z,4.60
2019-03-26T01:33:53.694Z,4.60
2019-03-26T01:36:22.998Z,4.60
2019-03-26T01:38:52.648Z,4.60
2019-03-26T01:41:21.966Z,4.60
2019-03-26T01:43:51.374Z,4.60
2019-03-26T01:46:20.786Z,4.60
2019-03-26T01:48:50.095Z,4.70
2019-03-26T01:51:19.387Z,4.70
2019-03-26T01:53:48.705Z,4.70
2019-03-26T01:56:17.987Z,4.70
2019-03-26T01:58:47.293Z,4.70
2019-03-26T02:01:16.603Z,4.70
2019-03-26T02:03:46.261Z,4.70
2019-03-26T02:06:15.631Z,4.80
2019-03-26T02:08:44.942Z,4.80
2019-03-26T02:11:14.258Z,4.80
2019-03-26T02:13:43.950Z,4.80
2019-03-26T02:16:13.241Z,4.80
2019-03-26T02:18:42.550Z,4.80
2019-03-26T02:21:11.853Z,4.80
2019-03-26T02:23:41.161Z,4.80
2019-03-26T02:26:10.940Z,4.80
2019-03-26T02:28:40.254Z,4.80
2019-03-26T02:31:09.611Z,4.90
2019-03-26T02:33:38.932Z,4.90
2019-03-26T02:36:08.313Z,4.90
2019-03-26T02:38:37.623Z,4.80
2019-03-26T02:41:07.008Z,4.80
2019-03-26T02:43:36.399Z,4.80
2019-03-26T02:46:05.855Z,4.80
2019-03-26T02:48:35.148Z,4.80
2019-03-26T02:51:04.510Z,4.80
2019-03-26T02:53:33.810Z,4.80
2019-03-26T02:56:03.113Z,4.80
2019-03-26T02:58:32.410Z,4.90
2019-03-26T03:01:01.803Z,4.90
2019-03-26T03:03:31.165Z,4.90
2019-03-26T03:06:00.603Z,4.90
2019-03-26T03:08:30.008Z,4.80
2019-03-26T03:10:59.398Z,4.80
2019-03-26T03:13:28.683Z,4.80
2019-03-26T03:15:58.087Z,4.80
2019-03-26T03:18:27.379Z,4.80
2019-03-26T03:20:57.014Z,4.80
2019-03-26T03:23:26.323Z,4.80
2019-03-26T03:25:55.716Z,4.80
2019-03-26T03:28:25.001Z,4.80
2019-03-26T03:30:54.325Z,4.80
2019-03-26T03:33:23.679Z,4.80
2019-03-26T03:35:53.394Z,4.80
2019-03-26T03:38:22.703Z,4.80
2019-03-26T03:40:52.038Z,4.70
2019-03-26T03:43:21.402Z,4.70
2019-03-26T03:45:52.058Z,4.70
2019-03-26T03:48:22.403Z,4.70
2019-03-26T03:50:53.798Z,4.70
2019-03-26T03:53:23.745Z,4.70
2019-03-26T03:55:56.259Z,4.70
2019-03-26T03:58:27.947Z,4.70
2019-03-26T04:00:57.363Z,4.70
2019-03-26T04:03:26.815Z,4.70
2019-03-26T04:06:08.218Z,4.70
2019-03-26T04:08:27.424Z,4.80
2019-03-26T04:10:56.727Z,4.80
2019-03-26T04:13:26.023Z,4.80
2019-03-26T04:15:55.360Z,4.80
2019-03-26T04:18:24.664Z,4.80
2019-03-26T04:20:53.972Z,4.80
2019-03-26T04:23:23.279Z,4.90
2019-03-26T04:25:52.708Z,4.90
2019-03-26T04:28:22.336Z,4.80
2019-03-26T04:30:51.666Z,4.80
2019-03-26T04:33:21.079Z,4.80
2019-03-26T04:35:50.447Z,4.70
2019-03-26T04:38:19.749Z,4.70
2019-03-26T04:40:49.122Z,4.80
2019-03-26T04:43:19.131Z,4.70
2019-03-26T04:45:49.667Z,4.70
2019-03-26T04:48:19.714Z,4.70
2019-03-26T04:50:49.122Z,4.60
2019-03-26T04:53:18.504Z,4.60
2019-03-26T04:55:47.807Z,4.70
2019-03-26T04:58:17.115Z,4.60
2019-03-26T05:00:46.551Z,4.60
2019-03-26T05:03:15.862Z,4.60
2019-03-26T05:05:45.511Z,4.60
2019-03-26T05:08:14.922Z,4.60
2019-03-26T05:10:44.222Z,4.60
2019-03-26T05:13:13.610Z,4.60
2019-03-26T05:15:43.032Z,4.60
2019-03-26T05:18:12.430Z,4.60
2019-03-26T05:20:41.867Z,4.60
2019-03-26T05:23:11.863Z,4.60
2019-03-26T05:25:41.150Z,4.60
2019-03-26T05:28:10.552Z,4.60
2019-03-26T05:30:39.826Z,4.60
2019-03-26T05:33:14.998Z,4.60
2019-03-26T05:35:44.303Z,4.60
2019-03-26T05:38:13.615Z,4.60
2019-03-26T05:40:42.906Z,4.60
2019-03-26T05:43:12.215Z,4.60
2019-03-26T05:45:41.606Z,4.60
2019-03-26T05:48:10.913Z,4.50
2019-03-26T05:50:40.597Z,4.50
2019-03-26T05:53:09.943Z,4.50
2019-03-26T05:55:39.331Z,4.50
2019-03-26T05:58:08.714Z,4.50
2019-03-26T06:00:38.109Z,4.60
2019-03-26T06:03:07.721Z,4.60
2019-03-26T06:05:37.311Z,4.60
2019-03-26T06:08:06.615Z,4.70
2019-03-26T06:10:36.129Z,4.60
2019-03-26T06:13:06.054Z,4.70
2019-03-26T06:15:35.355Z,4.80
2019-03-26T06:18:04.752Z,4.70
2019-03-26T06:20:34.044Z,4.80
2019-03-26T06:23:03.347Z,4.80
2019-03-26T06:25:32.641Z,4.90
2019-03-26T06:28:01.929Z,4.90
2019-03-26T06:30:31.221Z,4.80
2019-03-26T06:33:00.842Z,4.80
2019-03-26T06:35:30.154Z,4.80
2019-03-26T06:37:59.446Z,4.80
2019-03-26T06:40:29.166Z,4.80
2019-03-26T06:42:58.628Z,4.80
2019-03-26T06:45:28.902Z,4.90
2019-03-26T06:47:58.219Z,5.00
2019-03-26T06:50:27.847Z,5.10
2019-03-26T06:52:57.422Z,5.20
2019-03-26T06:55:26.802Z,5.20
2019-03-26T06:57:56.251Z,5.30
2019-03-26T07:00:32.774Z,5.40
2019-03-26T07:03:03.157Z,5.30
2019-03-26T07:05:32.638Z,5.30
2019-03-26T07:08:02.358Z,5.30
2019-03-26T07:10:31.818Z,5.30
2019-03-26T07:13:01.106Z,5.30
2019-03-26T07:15:30.522Z,5.30
2019-03-26T07:17:59.958Z,5.30
2019-03-26T07:20:29.264Z,5.30
2019-03-26T07:22:58.560Z,5.40
2019-03-26T07:25:27.938Z,5.40
2019-03-26T07:27:57.302Z,5.30
2019-03-26T07:30:43.775Z,5.40
2019-03-26T07:33:13.226Z,5.30
2019-03-26T07:35:42.908Z,5.30
2019-03-26T07:38:12.270Z,5.30
2019-03-26T07:40:41.651Z,5.40
2019-03-26T07:43:11.017Z,5.50
2019-03-26T07:45:40.701Z,5.50
2019-03-26T07:48:10.087Z,5.50
2019-03-26T07:50:39.771Z,5.40
2019-03-26T07:53:09.466Z,5.30
2019-03-26T07:55:38.905Z,5.30
2019-03-26T07:58:08.263Z,5.40
2019-03-26T08:00:39.087Z,5.40
2019-03-26T08:03:08.629Z,5.50
2019-03-26T08:05:38.093Z,5.50
2019-03-26T08:08:08.402Z,5.50
2019-03-26T08:10:37.823Z,5.60
2019-03-26T08:13:07.098Z,5.60
2019-03-26T08:15:36.355Z,5.60
2019-03-26T08:18:05.733Z,5.70
2019-03-26T08:20:35.458Z,5.80
2019-03-26T08:23:04.834Z,5.80
2019-03-26T08:25:34.187Z,5.90
2019-03-26T08:28:05.138Z,6.00
2019-03-26T08:30:34.782Z,6.00
2019-03-26T08:33:04.189Z,6.00
2019-03-26T08:35:33.571Z,6.00
2019-03-26T08:38:12.523Z,6.10
2019-03-26T08:40:34.141Z,6.20
2019-03-26T08:43:03.446Z,6.40
2019-03-26T08:45:32.738Z,6.50
2019-03-26T08:48:02.038Z,6.60
2019-03-26T08:50:31.323Z,6.50
2019-03-26T08:53:00.614Z,6.50
2019-03-26T08:55:29.898Z,6.50
2019-03-26T08:57:59.231Z,6.40
2019-03-26T09:00:31.801Z,6.40
2019-03-26T09:02:59.986Z,6.30
2019-03-26T09:05:29.265Z,6.30
2019-03-26T09:07:58.566Z,6.30
2019-03-26T09:10:28.045Z,6.20
2019-03-26T09:12:57.394Z,6.20
2019-03-26T09:15:26.720Z,6.30
2019-03-26T09:17:56.348Z,6.60
2019-03-26T09:20:25.640Z,7.20
2019-03-26T09:22:55.231Z,7.50
2019-03-26T09:25:25.138Z,8.30
2019-03-26T09:27:54.484Z,9.10
2019-03-26T09:30:23.804Z,9.90
2019-03-26T09:32:53.191Z,10.00
2019-03-26T09:35:22.894Z,10.10
2019-03-26T09:37:52.466Z,10.80
2019-03-26T09:40:21.870Z,10.70
2019-03-26T09:42:51.470Z,10.00
2019-03-26T09:45:20.853Z,10.10
2019-03-26T09:47:50.153Z,9.90
2019-03-26T09:50:31.449Z,9.50
2019-03-26T09:53:01.661Z,9.00
2019-03-26T09:55:30.983Z,8.90
2019-03-26T09:58:00.277Z,9.00
2019-03-26T10:00:29.623Z,9.20
2019-03-26T10:02:59.144Z,9.40
2019-03-26T10:05:28.563Z,9.70
2019-03-26T10:07:58.305Z,9.70
2019-03-26T10:10:27.631Z,9.80
2019-03-26T10:12:56.914Z,9.50
2019-03-26T10:15:26.218Z,9.30
2019-03-26T10:17:56.034Z,8.90
2019-03-26T10:20:25.594Z,9.00
2019-03-26T10:22:54.942Z,8.80
2019-03-26T10:25:24.566Z,8.50
2019-03-26T10:27:53.858Z,8.60
2019-03-26T10:30:33.426Z,8.90
2019-03-26T10:33:02.991Z,9.00
2019-03-26T10:35:32.323Z,9.40
2019-03-26T10:38:01.768Z,10.50
2019-03-26T10:40:32.387Z,10.50
2019-03-26T10:43:02.146Z,10.40
2019-03-26T10:45:31.605Z,10.40
2019-03-26T10:48:01.334Z,10.50
2019-03-26T10:50:30.794Z,10.50
2019-03-26T10:53:00.301Z,10.40
2019-03-26T10:55:29.944Z,10.80
2019-03-26T10:57:59.235Z,10.60
2019-03-26T11:00:29.386Z,10.30
2019-03-26T11:02:58.669Z,9.90
2019-03-26T11:05:28.045Z,9.50
2019-03-26T11:07:57.586Z,8.90
2019-03-26T11:10:26.999Z,8.50
2019-03-26T11:12:56.378Z,8.50
2019-03-26T11:15:25.779Z,8.70
2019-03-26T11:17:55.062Z,8.90
2019-03-26T11:20:24.962Z,8.70
2019-03-26T11:23:01.296Z,9.50
2019-03-26T11:25:30.823Z,10.20
2019-03-26T11:28:00.287Z,10.30
2019-03-26T11:30:29.759Z,10.70
2019-03-26T11:32:59.055Z,11.50
2019-03-26T11:35:28.379Z,11.90
2019-03-26T11:37:57.679Z,15.00
2019-03-26T11:40:27.012Z,15.90
2019-03-26T11:42:56.338Z,17.40
2019-03-26T11:45:25.723Z,17.60
2019-03-26T11:47:55.030Z,17.20
2019-03-26T11:50:24.526Z,17.50
2019-03-26T11:52:53.838Z,19.00
2019-03-26T11:55:23.583Z,19.50
2019-03-26T11:57:52.889Z,18.90
2019-03-26T12:00:27.722Z,18.70
2019-03-26T12:02:57.051Z,18.50
2019-03-26T12:05:26.450Z,18.90
2019-03-26T12:07:55.814Z,19.60
2019-03-26T12:10:25.223Z,18.60
2019-03-26T12:12:54.510Z,16.40
2019-03-26T12:15:23.824Z,14.80
2019-03-26T12:17:53.155Z,14.00
2019-03-26T12:20:22.460Z,13.20
2019-03-26T12:22:51.859Z,12.00
2019-03-26T12:25:21.159Z,11.60
2019-03-26T12:27:50.464Z,10.90
2019-03-26T12:30:32.667Z,10.60
2019-03-26T12:33:01.989Z,10.30
2019-03-26T12:35:31.855Z,9.70
2019-03-26T12:38:03.123Z,10.30
2019-03-26T12:40:32.433Z,10.80
2019-03-26T12:43:01.750Z,11.70
2019-03-26T12:45:31.054Z,11.80
2019-03-26T12:48:00.371Z,11.40
2019-03-26T12:50:32.131Z,10.90
2019-03-26T12:53:00.776Z,10.90
2019-03-26T12:55:30.162Z,10.40
2019-03-26T12:57:59.462Z,10.10
2019-03-26T13:00:33.124Z,10.30
2019-03-26T13:03:02.533Z,9.80
2019-03-26T13:05:31.833Z,9.40
2019-03-26T13:08:01.163Z,9.10
2019-03-26T13:10:30.467Z,8.90
2019-03-26T13:12:59.803Z,8.80
2019-03-26T13:15:29.250Z,8.80
2019-03-26T13:17:58.562Z,8.40
2019-03-26T13:20:27.970Z,8.30
2019-03-26T13:22:57.359Z,8.20
2019-03-26T13:25:26.766Z,8.50
2019-03-26T13:27:56.157Z,9.20
2019-03-26T13:30:25.550Z,9.90
2019-03-26T13:32:55.210Z,10.10
2019-03-26T13:35:24.548Z,10.40
2019-03-26T13:37:53.855Z,10.50
2019-03-26T13:40:27.430Z,10.70
2019-03-26T13:42:54.669Z,11.10
2019-03-26T13:45:24.058Z,11.50
2019-03-26T13:47:53.758Z,12.00
2019-03-26T13:50:23.140Z,12.30
2019-03-26T13:52:52.544Z,12.40
2019-03-26T13:55:21.942Z,12.50
2019-03-26T13:57:51.282Z,12.10
2019-03-26T14:00:38.046Z,11.60
2019-03-26T14:03:07.660Z,11.00
2019-03-26T14:05:37.063Z,10.10
2019-03-26T14:08:06.539Z,9.40
2019-03-26T14:10:41.272Z,9.10
2019-03-26T14:13:07.145Z,8.80
2019-03-26T14:15:36.521Z,8.70
2019-03-26T14:18:06.220Z,8.60
2019-03-26T14:20:35.532Z,8.70
2019-03-26T14:23:04.998Z,8.70
2019-03-26T14:25:34.459Z,8.60
2019-03-26T14:28:04.023Z,8.40
2019-03-26T14:30:41.291Z,8.30
2019-03-26T14:33:11.104Z,8.20
2019-03-26T14:35:40.561Z,8.10
2019-03-26T14:38:10.222Z,7.90
2019-03-26T14:40:39.625Z,7.90
2019-03-26T14:43:09.158Z,7.80
2019-03-26T14:45:38.459Z,7.80
2019-03-26T14:48:07.944Z,7.70
2019-03-26T14:50:37.626Z,7.60
2019-03-26T14:53:07.312Z,7.60
2019-03-26T14:55:36.618Z,7.50
2019-03-26T14:58:06.132Z,7.40
2019-03-26T15:00:35.546Z,7.30
2019-03-26T15:03:05.019Z,7.30
2019-03-26T15:05:34.340Z,7.20
2019-03-26T15:08:03.751Z,7.30
2019-03-26T15:10:33.167Z,7.30
2019-03-26T15:13:02.588Z,7.30
2019-03-26T15:15:32.207Z,7.20
2019-03-26T15:18:01.600Z,7.10
2019-03-26T15:20:31.427Z,7.00
2019-03-26T15:23:00.738Z,7.00
2019-03-26T15:25:30.082Z,7.10
2019-03-26T15:27:59.598Z,7.10
2019-03-26T15:30:28.991Z,7.10
2019-03-26T15:32:58.394Z,7.10
2019-03-26T15:35:27.797Z,7.10
2019-03-26T15:37:57.256Z,7.20
2019-03-26T15:40:26.593Z,7.30
2019-03-26T15:42:56.004Z,7.40
2019-03-26T15:45:25.404Z,7.60
2019-03-26T15:47:54.722Z,7.80
2019-03-26T15:50:38.572Z,7.80
2019-03-26T15:53:08.046Z,7.70
2019-03-26T15:55:37.367Z,7.70
2019-03-26T15:58:06.851Z,7.70
2019-03-26T16:00:36.209Z,7.70
2019-03-26T16:03:05.702Z,7.60
2019-03-26T16:05:35.346Z,7.70
2019-03-26T16:08:04.755Z,7.80
2019-03-26T16:10:34.095Z,7.80
2019-03-26T16:13:03.478Z,7.70
2019-03-26T16:15:43.606Z,7.60
2019-03-26T16:18:03.913Z,7.50
2019-03-26T16:20:33.242Z,7.50
2019-03-26T16:23:02.547Z,7.40
2019-03-26T16:25:31.867Z,7.40
2019-03-26T16:28:01.186Z,7.40
2019-03-26T16:30:31.877Z,7.30
2019-03-26T16:33:01.709Z,7.30
2019-03-26T16:35:31.111Z,7.20
2019-03-26T16:38:00.416Z,7.20
2019-03-26T16:40:29.822Z,7.20
2019-03-26T16:42:59.214Z,7.10
2019-03-26T16:45:28.659Z,7.10
2019-03-26T16:47:57.941Z,7.00
2019-03-26T16:50:27.655Z,7.00
2019-03-26T16:52:57.048Z,7.00
2019-03-26T16:55:26.706Z,6.90
2019-03-26T16:57:56.306Z,6.90
2019-03-26T17:00:35.837Z,6.80
2019-03-26T17:03:05.875Z,6.80
2019-03-26T17:05:35.178Z,6.70
2019-03-26T17:08:04.655Z,6.70
2019-03-26T17:10:34.344Z,6.80
2019-03-26T17:13:03.734Z,6.80
2019-03-26T17:15:33.387Z,6.70
2019-03-26T17:18:02.707Z,6.60
2019-03-26T17:20:32.022Z,6.60
2019-03-26T17:23:01.418Z,6.60
2019-03-26T17:25:30.761Z,6.60
2019-03-26T17:28:00.163Z,6.60
2019-03-26T17:30:29.541Z,6.60
2019-03-26T17:32:58.896Z,6.50
2019-03-26T17:35:28.251Z,6.50
2019-03-26T17:37:59.938Z,6.50
2019-03-26T17:40:29.035Z,6.40
2019-03-26T17:42:58.558Z,6.40
2019-03-26T17:45:27.871Z,6.30
2019-03-26T17:47:57.578Z,6.20
2019-03-26T17:50:26.974Z,6.20
2019-03-26T17:52:56.294Z,6.20
2019-03-26T17:55:25.902Z,6.10
2019-03-26T17:57:55.210Z,6.10
2019-03-26T18:00:37.034Z,6.00
2019-03-26T18:03:06.555Z,6.00
2019-03-26T18:05:35.966Z,6.00
2019-03-26T18:08:05.473Z,6.00
2019-03-26T18:10:35.276Z,6.00
2019-03-26T18:13:04.662Z,5.90
2019-03-26T18:15:34.286Z,6.00
2019-03-26T18:18:03.602Z,6.00
2019-03-26T18:20:33.239Z,6.00
2019-03-26T18:23:02.623Z,5.90
2019-03-26T18:25:32.218Z,5.90
2019-03-26T18:28:01.612Z,6.00
2019-03-26T18:30:30.974Z,6.00
2019-03-26T18:33:00.282Z,6.00
2019-03-26T18:35:29.576Z,6.00
2019-03-26T18:37:58.893Z,5.90
2019-03-26T18:40:28.259Z,6.00
2019-03-26T18:42:57.662Z,5.90
2019-03-26T18:45:27.231Z,5.90
2019-03-26T18:47:56.542Z,5.90
2019-03-26T18:50:25.851Z,5.90
2019-03-26T18:52:55.155Z,6.00
2019-03-26T18:55:25.381Z,5.90
2019-03-26T18:57:54.883Z,6.00
2019-03-26T19:00:32.943Z,6.00
2019-03-26T19:03:02.596Z,6.00
2019-03-26T19:05:31.928Z,6.00
2019-03-26T19:08:01.305Z,6.00
2019-03-26T19:10:31.782Z,6.00
2019-03-26T19:13:01.931Z,6.00
2019-03-26T19:15:31.327Z,6.00
2019-03-26T19:18:01.571Z,5.90
2019-03-26T19:20:30.930Z,5.80
2019-03-26T19:23:00.387Z,5.70
2019-03-26T19:25:29.830Z,5.70
2019-03-26T19:27:59.132Z,5.70
2019-03-26T19:30:28.451Z,5.70
2019-03-26T19:32:58.006Z,5.70
2019-03-26T19:35:27.718Z,5.70
2019-03-26T19:37:57.191Z,5.70
2019-03-26T19:40:26.624Z,5.70
2019-03-26T19:42:55.970Z,5.70
2019-03-26T19:45:25.315Z,5.70
2019-03-26T19:47:54.611Z,5.80
2019-03-26T19:50:25.082Z,5.80
2019-03-26T19:52:54.728Z,5.80
2019-03-26T19:55:24.047Z,5.80
2019-03-26T19:57:53.418Z,5.80
2019-03-26T20:00:26.639Z,5.80
2019-03-26T20:02:54.801Z,5.80
2019-03-26T20:05:24.111Z,5.80
2019-03-26T20:07:53.490Z,5.80
2019-03-26T20:10:23.347Z,5.80
2019-03-26T20:12:52.763Z,5.80
2019-03-26T20:15:22.343Z,5.80
2019-03-26T20:17:51.715Z,5.80
2019-03-26T20:20:21.287Z,5.80
2019-03-26T20:22:50.608Z,5.80
2019-03-26T20:25:19.994Z,5.80
2019-03-26T20:27:49.286Z,5.70
2019-03-26T20:30:19.294Z,5.60
2019-03-26T20:32:48.630Z,5.60
2019-03-26T20:35:19.480Z,5.60
2019-03-26T20:37:49.214Z,5.50
2019-03-26T20:40:18.894Z,5.50
2019-03-26T20:42:48.271Z,5.50
2019-03-26T20:45:18.409Z,5.50
2019-03-26T20:47:47.707Z,5.50
2019-03-26T20:50:17.671Z,5.50
2019-03-26T20:52:47.112Z,5.50
2019-03-26T20:55:19.318Z,5.40
2019-03-26T20:57:48.767Z,5.40
2019-03-26T21:00:33.627Z,5.40
2019-03-26T21:03:02.928Z,5.40
2019-03-26T21:05:32.232Z,5.40
2019-03-26T21:08:01.539Z,5.40
2019-03-26T21:10:30.929Z,5.40
2019-03-26T21:13:00.351Z,5.30
2019-03-26T21:15:29.743Z,5.30
2019-03-26T21:17:59.381Z,5.30
2019-03-26T21:20:30.114Z,5.40
2019-03-26T21:22:59.731Z,5.40
2019-03-26T21:25:29.203Z,5.30
2019-03-26T21:27:58.759Z,5.30
2019-03-26T21:30:28.211Z,5.30
2019-03-26T21:32:57.593Z,5.30
2019-03-26T21:35:28.821Z,5.30
2019-03-26T21:37:58.003Z,5.30
2019-03-26T21:40:27.354Z,5.20
2019-03-26T21:42:56.919Z,5.20
2019-03-26T21:45:34.690Z,5.20
2019-03-26T21:48:04.945Z,5.20
2019-03-26T21:50:34.314Z,5.10
2019-03-26T21:53:03.799Z,5.10
2019-03-26T21:55:33.161Z,5.10
2019-03-26T21:58:02.546Z,5.10
2019-03-26T22:00:32.310Z,5.10
2019-03-26T22:03:01.739Z,5.10
2019-03-26T22:05:31.154Z,5.10
2019-03-26T22:08:00.659Z,5.10
2019-03-26T22:10:29.966Z,5.10
2019-03-26T22:12:59.440Z,5.10
2019-03-26T22:15:28.814Z,5.00
2019-03-26T22:17:58.122Z,5.00
2019-03-26T22:20:27.414Z,5.00
2019-03-26T22:22:56.840Z,5.00
2019-03-26T22:25:26.203Z,5.00
2019-03-26T22:27:55.510Z,5.00
2019-03-26T22:30:24.874Z,4.90
2019-03-26T22:32:54.175Z,4.90
2019-03-26T22:35:23.487Z,4.90
2019-03-26T22:37:53.151Z,4.80
2019-03-26T22:40:22.522Z,4.80
2019-03-26T22:42:51.831Z,4.80
2019-03-26T22:45:21.125Z,4.70
2019-03-26T22:47:50.454Z,4.70
2019-03-26T22:50:19.903Z,4.70
2019-03-26T22:52:49.218Z,4.70
2019-03-26T22:55:18.507Z,4.70
2019-03-26T22:57:49.130Z,4.70
2019-03-26T23:00:19.353Z,4.60
2019-03-26T23:02:48.679Z,4.60
2019-03-26T23:05:18.338Z,4.60
2019-03-26T23:07:47.690Z,4.60
2019-03-26T23:10:18.894Z,4.60
2019-03-26T23:12:48.462Z,4.60
2019-03-26T23:15:22.066Z,4.50
2019-03-26T23:17:51.452Z,4.60
2019-03-26T23:20:21.294Z,4.50
2019-03-26T23:22:50.751Z,4.50
2019-03-26T23:25:20.209Z,4.50
2019-03-26T23:27:49.974Z,4.50
2019-03-26T23:30:19.878Z,4.50
2019-03-26T23:32:49.533Z,4.50
2019-03-26T23:35:19.243Z,4.40
2019-03-26T23:37:48.557Z,4.40
2019-03-26T23:40:17.946Z,4.40
2019-03-26T23:42:47.327Z,4.30
2019-03-26T23:45:16.812Z,4.30
2019-03-26T23:47:46.110Z,4.20
2019-03-26T23:50:15.881Z,4.20
2019-03-26T23:52:45.454Z,4.20
2019-03-26T23:55:14.929Z,4.10
2019-03-26T23:57:44.234Z,4.10
